createdAt,value
2023-02-12T13:58:41.096Z,11.32
2023-02-12T14:01:11.790Z,16.30
2023-02-12T14:03:39.207Z,21.23
2023-02-12T14:06:17.206Z,23.63
2023-02-12T14:09:08.421Z,15.95
2023-02-12T14:11:48.521Z,20.92
2023-02-12T14:14:26.931Z,20.48
2023-02-12T14:16:53.538Z,23.45
2023-02-12T14:19:41.550Z,25.17
2023-02-12T14:22:35.885Z,23.80
2023-02-12T14:25:25.262Z,27.33
2023-02-12T14:28:26.335Z,21.13
2023-02-12T14:31:28.012Z,23.17
2023-02-12T14:34:07.492Z,23.05
2023-02-12T14:36:38.906Z,22.77
2023-02-12T14:39:20.971Z,23.73
2023-02-12T14:42:09.543Z,25.83
2023-02-12T14:44:36.094Z,26.65
2023-02-12T14:47:17.327Z,19.85
2023-02-12T14:49:52.920Z,26.35
2023-02-12T14:52:25.357Z,28.98
2023-02-12T14:54:56.518Z,27.98
2023-02-12T14:57:33.680Z,29.98
2023-02-12T15:00:23.933Z,30.23
2023-02-12T15:03:09.404Z,24.88
2023-02-12T15:05:52.559Z,26.27
2023-02-12T15:08:46.730Z,24.65
2023-02-12T15:11:22.291Z,27.33
2023-02-12T15:14:03.689Z,25.80
2023-02-12T15:16:56.543Z,22.00
2023-02-12T15:19:50.748Z,23.50
2023-02-12T15:22:22.335Z,28.13
2023-02-12T15:24:49.475Z,26.35
2023-02-12T15:27:17.515Z,30.00
2023-02-12T15:29:51.546Z,24.88
2023-02-12T15:32:24.662Z,28.60
2023-02-12T15:34:52.577Z,26.92
2023-02-12T15:37:31.416Z,23.73
2023-02-12T15:40:05.558Z,25.88
2023-02-12T15:42:33.642Z,25.95
2023-02-12T15:45:19.877Z,24.45
2023-02-12T15:48:05.338Z,30.45
2023-02-12T15:50:33.146Z,19.45
2023-02-12T15:53:00.248Z,24.08
2023-02-12T15:55:30.540Z,24.13
2023-02-12T15:58:00.087Z,21.38
2023-02-12T16:00:39.060Z,15.32
2023-02-12T16:03:06.629Z,22.92
2023-02-12T16:05:35.377Z,21.75
2023-02-12T16:08:02.386Z,23.23
2023-02-12T16:10:29.193Z,20.25
2023-02-12T16:12:55.922Z,16.08
2023-02-12T16:15:34.735Z,21.77
2023-02-12T16:18:04.264Z,23.50
2023-02-12T16:20:31.907Z,18.77
2023-02-12T16:23:01.756Z,18.75
2023-02-12T16:25:32.523Z,21.27
2023-02-12T16:28:07.494Z,22.58
2023-02-12T16:30:42.962Z,23.83
2023-02-12T16:33:34.397Z,22.88
2023-02-12T16:36:07.152Z,19.15
2023-02-12T16:38:44.102Z,20.45
2023-02-12T16:41:25.523Z,20.95
2023-02-12T16:44:01.704Z,22.38
2023-02-12T16:46:31.431Z,19.98
2023-02-12T16:49:00.701Z,19.63
2023-02-12T16:51:32.170Z,22.10
2023-02-12T16:54:00.964Z,21.48
2023-02-12T16:57:02.245Z,21.10
2023-02-12T16:59:29.274Z,20.42
2023-02-12T17:02:00.586Z,19.15
2023-02-12T17:04:30.200Z,22.05
2023-02-12T17:06:58.054Z,20.77
2023-02-12T17:09:24.679Z,21.90
2023-02-12T17:11:51.302Z,20.20
2023-02-12T17:14:19.864Z,19.15
2023-02-12T17:16:47.599Z,20.00
2023-02-12T17:19:14.723Z,21.48
2023-02-12T17:21:44.379Z,21.15
2023-02-12T17:24:23.433Z,20.42
2023-02-12T17:26:53.979Z,21.83
2023-02-12T17:29:24.093Z,22.33
2023-02-12T17:31:54.575Z,21.75
2023-02-12T17:34:22.095Z,24.83
2023-02-12T17:36:50.085Z,21.38
2023-02-12T17:39:17.765Z,20.38
2023-02-12T17:41:45.240Z,18.88
2023-02-12T17:44:14.026Z,20.42
2023-02-12T17:46:40.894Z,21.05
2023-02-12T17:49:07.530Z,18.15
2023-02-12T17:51:34.066Z,18.27
2023-02-12T17:54:00.795Z,16.98
2023-02-12T17:56:28.893Z,20.35
2023-02-12T17:58:55.481Z,22.00
2023-02-12T18:01:23.878Z,21.85
2023-02-12T18:03:53.227Z,18.98
2023-02-12T18:06:30.235Z,20.95
2023-02-12T18:08:58.715Z,18.55
2023-02-12T18:11:26.007Z,14.40
2023-02-12T18:13:54.062Z,18.83
2023-02-12T18:16:21.224Z,17.80
2023-02-12T18:18:48.513Z,16.17
2023-02-12T18:21:16.274Z,16.58
2023-02-12T18:23:43.689Z,20.55
2023-02-12T18:26:13.488Z,20.40
2023-02-12T18:28:40.212Z,18.52
2023-02-12T18:31:07.332Z,11.27
2023-02-12T18:33:34.784Z,21.25
2023-02-12T18:36:10.424Z,19.88
2023-02-12T18:38:38.800Z,17.33
2023-02-12T18:41:14.896Z,20.67
2023-02-12T18:43:43.822Z,18.92
2023-02-12T18:46:22.597Z,20.40
2023-02-12T18:48:49.967Z,22.42
2023-02-12T18:51:21.142Z,22.10
2023-02-12T18:53:48.870Z,25.10
2023-02-12T18:56:20.082Z,20.05
2023-02-12T18:58:46.686Z,19.45
2023-02-12T19:01:23.949Z,18.88
2023-02-12T19:04:01.270Z,22.23
2023-02-12T19:06:34.057Z,27.35
2023-02-12T19:09:03.324Z,20.23
2023-02-12T19:11:30.965Z,20.27
2023-02-12T19:13:57.885Z,21.30
2023-02-12T19:16:25.215Z,22.58
2023-02-12T19:18:58.225Z,23.77
2023-02-12T19:21:26.453Z,19.15
2023-02-12T19:23:58.580Z,21.55
2023-02-12T19:26:26.388Z,22.55
2023-02-12T19:28:53.156Z,23.65
2023-02-12T19:31:22.820Z,24.13
2023-02-12T19:33:53.833Z,22.25
2023-02-12T19:36:20.982Z,21.27
2023-02-12T19:38:50.979Z,22.95
2023-02-12T19:41:24.553Z,25.08
2023-02-12T19:43:58.245Z,24.48
2023-02-12T19:46:31.771Z,20.13
2023-02-12T19:49:02.441Z,21.55
2023-02-12T19:51:30.330Z,19.27
2023-02-12T19:54:09.982Z,19.55
2023-02-12T19:56:41.078Z,16.10
2023-02-12T19:59:08.902Z,15.98
2023-02-12T20:01:36.686Z,16.25
2023-02-12T20:04:03.637Z,15.70
2023-02-12T20:06:38.014Z,15.02
2023-02-12T20:09:07.021Z,16.30
2023-02-12T20:11:38.567Z,14.60
2023-02-12T20:14:11.395Z,13.75
2023-02-12T20:16:43.796Z,12.25
2023-02-12T20:19:26.184Z,8.57
2023-02-12T20:21:57.045Z,10.68
2023-02-12T20:24:26.129Z,10.57
2023-02-12T20:26:53.547Z,12.65
2023-02-12T20:29:20.618Z,13.75
2023-02-12T20:31:50.240Z,10.15
2023-02-12T20:34:18.771Z,11.05
2023-02-12T20:36:47.373Z,9.93
2023-02-12T20:39:17.312Z,12.05
2023-02-12T20:41:44.323Z,11.63
2023-02-12T20:44:17.152Z,12.65
2023-02-12T20:46:48.756Z,13.25
2023-02-12T20:49:17.885Z,10.70
2023-02-12T20:51:45.746Z,8.70
2023-02-12T20:54:12.784Z,9.48
2023-02-12T20:56:43.086Z,12.88
2023-02-12T20:59:10.968Z,9.10
2023-02-12T21:01:40.281Z,10.00
2023-02-12T21:04:09.726Z,11.30
2023-02-12T21:06:36.879Z,9.85
2023-02-12T21:09:03.580Z,9.27
2023-02-12T21:11:31.085Z,10.80
2023-02-12T21:14:18.557Z,10.77
2023-02-12T21:16:46.145Z,10.80
2023-02-12T21:19:14.128Z,7.20
2023-02-12T21:21:42.335Z,7.88
2023-02-12T21:24:13.059Z,11.68
2023-02-12T21:26:40.119Z,10.82
2023-02-12T21:29:06.684Z,8.02
2023-02-12T21:31:38.045Z,8.15
2023-02-12T21:34:06.896Z,4.82
2023-02-12T21:36:37.401Z,8.82
2023-02-12T21:39:06.018Z,8.70
2023-02-12T21:41:35.684Z,7.82
2023-02-12T21:44:09.135Z,8.02
2023-02-12T21:46:36.213Z,8.48
2023-02-12T21:49:04.019Z,8.48
2023-02-12T21:51:49.267Z,8.77
2023-02-12T21:54:15.938Z,7.90
2023-02-12T21:56:47.394Z,5.35
2023-02-12T21:59:14.554Z,7.20
2023-02-12T22:01:47.374Z,5.95
2023-02-12T22:04:14.261Z,7.53
2023-02-12T22:06:47.154Z,6.85
2023-02-12T22:09:15.991Z,8.18
2023-02-12T22:11:43.439Z,6.15
2023-02-12T22:14:14.288Z,5.85
2023-02-12T22:16:41.210Z,5.05
2023-02-12T22:19:07.988Z,5.97
2023-02-12T22:21:37.337Z,6.10
2023-02-12T22:24:06.624Z,5.63
2023-02-12T22:26:33.728Z,2.70
2023-02-12T22:29:05.268Z,6.57
2023-02-12T22:31:35.139Z,5.55
2023-02-12T22:34:05.407Z,5.10
2023-02-12T22:36:36.344Z,3.17
2023-02-12T22:39:04.010Z,5.63
2023-02-12T22:41:31.164Z,3.75
2023-02-12T22:44:05.871Z,3.33
2023-02-12T22:46:33.326Z,4.15
2023-02-12T22:49:00.226Z,4.38
2023-02-12T22:51:32.057Z,2.75
2023-02-12T22:53:59.361Z,7.75
2023-02-12T22:56:27.455Z,4.82
2023-02-12T22:59:02.919Z,7.07
2023-02-12T23:01:31.082Z,2.72
2023-02-12T23:03:57.875Z,3.47
2023-02-12T23:06:28.245Z,3.78
2023-02-12T23:08:59.006Z,4.55
2023-02-12T23:11:28.205Z,3.63
2023-02-12T23:13:56.206Z,5.22
2023-02-12T23:16:23.594Z,5.38
2023-02-12T23:18:58.689Z,4.78
2023-02-12T23:21:26.705Z,7.45
2023-02-12T23:23:53.588Z,1.50
2023-02-12T23:26:21.057Z,4.68
2023-02-12T23:28:47.716Z,3.67
2023-02-12T23:31:14.587Z,4.68
2023-02-12T23:33:41.553Z,4.18
2023-02-12T23:36:08.563Z,4.15
2023-02-12T23:38:35.126Z,6.32
2023-02-12T23:41:01.752Z,4.05
2023-02-12T23:43:28.449Z,3.67
2023-02-12T23:45:55.053Z,4.45
2023-02-12T23:48:22.446Z,4.32
2023-02-12T23:50:50.032Z,5.03
2023-02-12T23:53:18.293Z,3.97
2023-02-12T23:55:45.701Z,7.50
2023-02-12T23:58:12.371Z,5.15
